Time;durP1;ratioP1;P1;durP2;ratioP2;P2;SDS_P1;SDS_P2;PMS_P1;PMS_P2;Temp;Humidity;BMP_temperature;BMP_pressure;BME280_temperature;BME280_humidity;BME280_pressure;Samples;Min_cycle;Max_cycle;Signal;HPM_P1;HPM_P2
2024/04/15 00:02:02;;;;;;;7.13;5.17;;;10.00;99.90;;;;;;5528717;25;20513;-60
2024/04/15 00:04:28;;;;;;;10.23;6.17;;;10.00;99.90;;;;;;5529102;25;20493;-60
2024/04/15 00:06:57;;;;;;;7.50;5.07;;;10.10;99.90;;;;;;5529036;25;20795;-61
2024/04/15 00:09:25;;;;;;;8.93;5.13;;;10.10;99.90;;;;;;5529186;25;20569;-60
2024/04/15 00:11:54;;;;;;;9.03;5.00;;;10.10;99.90;;;;;;5528999;25;20467;-59
2024/04/15 00:14:21;;;;;;;6.67;4.77;;;10.10;99.90;;;;;;5528777;25;20451;-60
2024/04/15 00:16:49;;;;;;;7.23;5.70;;;10.00;99.90;;;;;;5528694;25;20466;-60
2024/04/15 00:19:16;;;;;;;7.70;5.83;;;10.00;99.90;;;;;;5528876;25;20451;-60
2024/04/15 00:21:45;;;;;;;7.47;5.80;;;10.00;99.90;;;;;;5528835;25;20505;-60
2024/04/15 00:24:11;;;;;;;9.47;6.97;;;10.00;99.90;;;;;;5528717;25;20475;-60
2024/04/15 00:26:42;;;;;;;7.87;5.40;;;10.10;99.90;;;;;;5528532;25;20455;-60
2024/04/15 00:29:08;;;;;;;9.60;5.57;;;10.10;99.90;;;;;;5528659;25;20888;-61
2024/04/15 00:31:37;;;;;;;9.57;6.13;;;10.10;99.90;;;;;;5528894;25;20471;-60
2024/04/15 00:34:03;;;;;;;11.33;5.50;;;10.10;99.90;;;;;;5528489;25;20919;-60
2024/04/15 00:36:32;;;;;;;10.03;6.37;;;10.10;1.00;;;;;;5529634;25;20555;-60
2024/04/15 00:38:58;;;;;;;8.23;5.90;;;10.10;99.90;;;;;;5532044;25;20455;-60
2024/04/15 00:41:27;;;;;;;10.90;6.47;;;10.00;99.90;;;;;;5532060;25;20442;-60
2024/04/15 00:43:56;;;;;;;9.10;5.43;;;10.00;99.90;;;;;;5531702;25;20455;-61
2024/04/15 00:46:25;;;;;;;9.90;6.00;;;10.00;99.90;;;;;;5531717;25;20444;-61
2024/04/15 00:48:53;;;;;;;8.47;5.60;;;10.00;99.90;;;;;;5531867;25;20668;-62
2024/04/15 00:51:24;;;;;;;8.10;6.00;;;10.00;99.90;;;;;;5532036;25;20458;-62
2024/04/15 00:53:52;;;;;;;7.40;5.53;;;10.00;99.90;;;;;;5531479;25;20459;-61
2024/04/15 00:56:23;;;;;;;6.90;5.57;;;10.00;99.90;;;;;;5531337;25;20504;-61
2024/04/15 00:58:51;;;;;;;8.30;6.20;;;9.90;99.90;;;;;;5531150;25;20501;-62
2024/04/15 01:01:23;;;;;;;7.40;6.07;;;9.90;99.90;;;;;;5531532;25;20515;-62
2024/04/15 01:03:50;;;;;;;10.27;6.93;;;9.90;99.90;;;;;;5531677;25;20458;-62
2024/04/15 01:06:20;;;;;;;7.20;6.40;;;9.90;99.90;;;;;;5531644;25;20458;-62
2024/04/15 01:08:46;;;;;;;14.60;6.10;;;9.90;99.90;;;;;;5531607;25;20450;-62
2024/04/15 01:11:15;;;;;;;7.60;6.70;;;9.90;99.90;;;;;;5531592;25;20521;-62
2024/04/15 01:13:42;;;;;;;10.40;6.90;;;9.90;99.90;;;;;;5531523;25;20817;-63
2024/04/15 01:16:10;;;;;;;9.60;6.70;;;10.00;99.90;;;;;;5531092;25;20521;-62
2024/04/15 01:18:39;;;;;;;11.40;7.03;;;10.00;99.90;;;;;;5531300;25;20396;-62
2024/04/15 01:21:08;;;;;;;8.03;6.30;;;10.00;99.90;;;;;;5531375;25;20506;-63
2024/04/15 01:23:38;;;;;;;8.83;6.90;;;10.00;99.90;;;;;;5531447;25;20560;-63
2024/04/15 01:26:09;;;;;;;13.37;6.97;;;10.00;99.90;;;;;;5531116;25;20526;-62
2024/04/15 01:28:36;;;;;;;11.83;7.13;;;10.00;99.90;;;;;;5531225;25;20454;-63
2024/04/15 01:31:05;;;;;;;11.17;7.97;;;10.00;99.90;;;;;;5531293;25;20466;-63
2024/04/15 01:33:31;;;;;;;11.50;8.47;;;9.90;99.90;;;;;;5531313;25;20889;-63
2024/04/15 01:36:00;;;;;;;9.60;7.60;;;9.90;99.90;;;;;;5530766;25;20443;-62
2024/04/15 01:38:26;;;;;;;9.23;8.17;;;9.80;99.90;;;;;;5531226;25;20985;-63
2024/04/15 01:40:55;;;;;;;10.43;8.03;;;9.80;99.90;;;;;;5531232;25;20522;-62
2024/04/15 01:43:24;;;;;;;14.20;9.27;;;9.70;99.90;;;;;;5531251;25;20450;-62
2024/04/15 01:45:52;;;;;;;10.83;9.73;;;9.70;99.90;;;;;;5531157;25;20923;-62
2024/04/15 01:48:19;;;;;;;14.23;10.50;;;9.60;99.90;;;;;;5530173;25;20971;-63
2024/04/15 01:50:48;;;;;;;16.83;11.27;;;9.60;99.90;;;;;;5530910;25;20508;-62
2024/04/15 01:53:15;;;;;;;12.03;10.50;;;9.60;99.90;;;;;;5531028;25;20509;-63
2024/04/15 01:55:46;;;;;;;12.80;10.93;;;9.50;99.90;;;;;;5530937;25;20439;-62
2024/04/15 01:58:12;;;;;;;17.23;10.90;;;9.50;99.90;;;;;;5530964;25;20462;-63
2024/04/15 02:00:43;;;;;;;12.10;10.90;;;9.50;99.90;;;;;;5530774;25;20399;-63
2024/04/15 02:03:10;;;;;;;13.87;11.63;;;9.40;99.90;;;;;;5531049;25;20784;-62
2024/04/15 02:05:38;;;;;;;13.40;12.10;;;9.40;99.90;;;;;;5530343;25;20466;-63
2024/04/15 02:08:05;;;;;;;14.57;12.47;;;9.30;99.90;;;;;;5530569;25;20556;-64
2024/04/15 02:10:34;;;;;;;15.20;13.37;;;9.30;99.90;;;;;;5530546;25;20507;-63
2024/04/15 02:13:00;;;;;;;15.07;12.57;;;9.20;99.90;;;;;;5530701;25;20407;-63
2024/04/15 02:15:29;;;;;;;18.67;13.37;;;9.10;99.90;;;;;;5530565;25;20523;-63
2024/04/15 02:17:58;;;;;;;20.70;15.10;;;9.10;99.90;;;;;;5530362;25;20824;-63
2024/04/15 02:20:26;;;;;;;16.20;14.23;;;9.20;99.90;;;;;;5530410;25;20515;-63
2024/04/15 02:22:55;;;;;;;15.20;13.67;;;9.20;99.90;;;;;;5530519;25;20488;-63
2024/04/15 02:25:24;;;;;;;17.13;13.07;;;9.20;99.90;;;;;;5530792;25;20569;-62
2024/04/15 02:27:50;;;;;;;17.93;14.90;;;9.20;99.90;;;;;;5530389;25;20459;-63
2024/04/15 02:30:19;;;;;;;13.83;12.40;;;9.10;99.90;;;;;;5530305;25;20459;-63
2024/04/15 02:32:46;;;;;;;15.90;12.27;;;9.10;99.90;;;;;;5530302;25;20506;-63
2024/04/15 02:35:17;;;;;;;13.90;12.50;;;9.10;99.90;;;;;;5529931;25;20511;-63
2024/04/15 02:37:43;;;;;;;18.43;13.17;;;9.10;99.90;;;;;;5529887;25;20816;-62
2024/04/15 02:40:13;;;;;;;17.03;14.93;;;9.10;99.90;;;;;;5530077;25;20443;-62
2024/04/15 02:42:39;;;;;;;16.57;13.80;;;9.10;99.90;;;;;;5530167;25;20467;-64
2024/04/15 02:45:08;;;;;;;18.50;14.80;;;9.10;99.90;;;;;;5530271;25;20438;-63
2024/04/15 02:47:34;;;;;;;18.47;14.47;;;9.00;99.90;;;;;;5530467;25;20843;-62
2024/04/15 02:50:03;;;;;;;19.33;13.73;;;9.00;99.90;;;;;;5529847;25;20503;-63
2024/04/15 02:52:32;;;;;;;18.40;13.83;;;8.90;99.90;;;;;;5529966;25;20396;-63
2024/04/15 02:55:01;;;;;;;20.20;14.40;;;8.90;99.90;;;;;;5530009;25;20503;-62
2024/04/15 02:57:27;;;;;;;17.10;15.13;;;8.80;99.90;;;;;;5530108;25;20447;-62
2024/04/15 02:59:56;;;;;;;15.20;13.70;;;8.90;99.90;;;;;;5528563;25;20554;-62
2024/04/15 03:02:22;;;;;;;17.73;13.83;;;8.80;99.90;;;;;;5529826;25;20911;-62
2024/04/15 03:04:51;;;;;;;24.00;15.53;;;8.80;99.90;;;;;;5529885;25;20807;-63
2024/04/15 03:07:17;;;;;;;22.57;16.23;;;8.90;99.90;;;;;;5530018;25;20912;-62
2024/04/15 03:09:48;;;;;;;17.67;15.00;;;8.80;81.70;;;;;;5529946;25;20750;-63
2024/04/15 03:12:17;;;;;;;17.53;14.37;;;8.80;95.10;;;;;;5529658;25;20392;-63
2024/04/15 03:14:43;;;;;;;17.90;15.37;;;8.70;71.10;;;;;;5529777;25;20396;-63
2024/04/15 03:17:12;;;;;;;21.13;15.80;;;8.60;94.60;;;;;;5529783;25;20459;-63
2024/04/15 03:19:39;;;;;;;19.90;17.80;;;8.60;56.50;;;;;;5529773;25;20810;-63
2024/04/15 03:22:08;;;;;;;18.47;16.63;;;8.50;99.90;;;;;;5529627;25;20392;-63
2024/04/15 03:24:35;;;;;;;19.67;17.57;;;8.60;99.90;;;;;;5529554;25;20395;-63
2024/04/15 03:27:06;;;;;;;19.20;17.13;;;8.50;99.90;;;;;;5529612;25;20510;-63
2024/04/15 03:29:32;;;;;;;23.23;19.33;;;8.50;99.90;;;;;;5529691;25;20459;-63
2024/04/15 03:32:01;;;;;;;27.60;18.20;;;8.60;99.90;;;;;;5529272;25;20820;-63
2024/04/15 03:34:27;;;;;;;20.70;18.50;;;8.60;99.90;;;;;;5529372;25;20626;-63
2024/04/15 03:36:56;;;;;;;24.70;19.37;;;8.60;99.90;;;;;;5529056;25;20409;-59
2024/04/15 03:39:22;;;;;;;24.07;21.07;;;8.60;99.90;;;;;;5529581;25;20564;-59
2024/04/15 03:41:51;;;;;;;22.23;19.17;;;8.70;99.90;;;;;;5529186;25;20462;-59
2024/04/15 03:44:20;;;;;;;20.87;18.60;;;8.60;99.90;;;;;;5529265;25;20860;-59
2024/04/15 03:46:49;;;;;;;21.80;18.87;;;8.70;99.90;;;;;;5529282;25;20897;-60
2024/04/15 03:49:15;;;;;;;24.70;17.73;;;8.70;99.90;;;;;;5529382;25;20990;-58
2024/04/15 03:51:44;;;;;;;20.17;18.10;;;8.70;99.90;;;;;;5529380;25;20492;-59
2024/04/15 03:54:10;;;;;;;17.43;15.60;;;8.80;99.90;;;;;;5529019;25;20503;-59
2024/04/15 03:56:39;;;;;;;22.37;17.23;;;8.80;99.90;;;;;;5529061;25;20462;-58
2024/04/15 03:59:05;;;;;;;17.80;15.83;;;8.80;99.90;;;;;;5529318;25;20437;-59
2024/04/15 04:01:37;;;;;;;18.67;15.97;;;8.90;99.90;;;;;;5526065;25;20524;-60
2024/04/15 04:04:03;;;;;;;17.63;13.90;;;8.80;99.90;;;;;;5527725;25;20790;-58
2024/04/15 04:06:33;;;;;;;17.47;14.13;;;8.80;99.90;;;;;;5526841;25;20811;-58
2024/04/15 04:08:59;;;;;;;18.57;14.93;;;8.80;99.90;;;;;;5528962;25;20506;-58
2024/04/15 04:11:28;;;;;;;19.90;15.67;;;8.80;99.90;;;;;;5528838;25;20757;-58
2024/04/15 04:13:55;;;;;;;19.23;15.30;;;8.70;99.90;;;;;;5528958;25;20726;-59
2024/04/15 04:16:23;;;;;;;17.77;15.83;;;8.70;99.90;;;;;;5528612;25;20507;-58
2024/04/15 04:18:52;;;;;;;18.97;15.23;;;8.80;44.10;;;;;;5528734;25;20489;-58
2024/04/15 04:21:21;;;;;;;19.53;14.70;;;8.70;10.50;;;;;;5528812;25;20507;-58
2024/04/15 04:23:47;;;;;;;18.03;14.30;;;8.70;64.00;;;;;;5528254;25;20842;-59
2024/04/15 04:26:16;;;;;;;17.13;13.90;;;8.70;41.10;;;;;;5528497;25;20463;-58
2024/04/15 04:28:42;;;;;;;15.40;13.70;;;8.70;99.90;;;;;;5528299;25;20466;-59
2024/04/15 04:31:11;;;;;;;18.93;15.63;;;8.70;69.40;;;;;;5528348;25;20689;-58
2024/04/15 04:33:38;;;;;;;16.33;14.63;;;8.60;38.60;;;;;;5528457;25;20451;-58
2024/04/15 04:36:09;;;;;;;19.00;14.80;;;8.60;99.90;;;;;;5527566;25;20408;-57
2024/04/15 04:38:36;;;;;;;19.40;17.23;;;8.60;99.90;;;;;;5528256;25;20443;-59
2024/04/15 04:41:05;;;;;;;16.57;14.33;;;8.50;24.70;;;;;;5527978;25;20466;-57
2024/04/15 04:43:31;;;;;;;19.33;15.57;;;8.40;1.00;;;;;;5527748;25;20502;-59
2024/04/15 04:45:59;;;;;;;18.90;16.43;;;8.40;74.70;;;;;;5528037;25;20506;-58
2024/04/15 04:48:26;;;;;;;17.33;15.33;;;8.40;39.90;;;;;;5527883;25;20470;-58
2024/04/15 04:50:55;;;;;;;18.57;16.40;;;8.40;10.10;;;;;;5528048;25;20448;-58
2024/04/15 04:53:24;;;;;;;19.33;15.90;;;8.40;73.50;;;;;;5528283;25;20497;-58
2024/04/15 04:55:53;;;;;;;16.80;14.50;;;8.40;63.50;;;;;;5527763;25;20514;-58
2024/04/15 04:58:19;;;;;;;14.70;12.60;;;8.40;1.00;;;;;;5528503;25;20388;-59
2024/04/15 05:00:48;;;;;;;16.10;11.80;;;8.40;1.00;;;;;;5528001;25;20460;-58
2024/04/15 05:03:14;;;;;;;18.37;12.63;;;8.40;1.00;;;;;;5527609;25;20451;-58
2024/04/15 05:05:43;;;;;;;17.90;12.30;;;8.40;1.00;;;;;;5528038;25;20506;-59
2024/04/15 05:08:09;;;;;;;13.40;10.60;;;8.30;28.30;;;;;;5527790;25;20489;-58
2024/04/15 05:10:41;;;;;;;13.40;10.93;;;8.30;99.90;;;;;;5527756;25;20870;-58
2024/04/15 05:13:07;;;;;;;12.63;10.20;;;8.30;1.00;;;;;;5527361;25;20471;-58
2024/04/15 05:15:39;;;;;;;19.57;12.17;;;8.30;1.00;;;;;;5527125;25;20592;-59
2024/04/15 05:18:05;;;;;;;13.40;10.23;;;8.30;1.00;;;;;;5521998;26;20520;-58
2024/04/15 05:20:39;;;;;;;14.80;11.20;;;8.30;1.00;;;;;;5526924;25;20474;-58
2024/04/15 05:23:05;;;;;;;13.40;11.10;;;8.40;1.00;;;;;;5525160;26;20550;-58
2024/04/15 05:25:34;;;;;;;19.10;12.10;;;8.40;99.90;;;;;;5531398;25;20865;-59
2024/04/15 05:28:03;;;;;;;12.17;10.23;;;8.50;33.80;;;;;;5532283;25;20387;-58
2024/04/15 05:30:32;;;;;;;15.77;10.50;;;8.60;63.40;;;;;;5531198;25;20489;-59
2024/04/15 05:33:01;;;;;;;13.10;11.23;;;8.60;47.00;;;;;;5530817;25;20499;-58
2024/04/15 05:35:27;;;;;;;18.57;9.47;;;8.70;1.00;;;;;;5528730;26;20466;-59
2024/04/15 05:37:56;;;;;;;11.43;10.00;;;8.70;1.00;;;;;;5528492;25;20949;-59
2024/04/15 05:40:22;;;;;;;17.40;9.77;;;8.60;6.30;;;;;;5528163;25;20502;-59
2024/04/15 05:42:51;;;;;;;9.57;7.90;;;8.50;1.00;;;;;;5528114;25;20572;-58
2024/04/15 05:45:20;;;;;;;8.73;7.80;;;8.40;1.00;;;;;;5528288;25;20451;-59
2024/04/15 05:47:49;;;;;;;10.00;7.60;;;8.50;1.00;;;;;;5527691;25;21017;-58
2024/04/15 05:50:16;;;;;;;10.10;7.70;;;8.50;1.00;;;;;;5529010;25;20434;-57
2024/04/15 05:52:45;;;;;;;12.70;9.17;;;8.50;1.00;;;;;;5530945;25;20470;-58
2024/04/15 05:55:11;;;;;;;11.50;8.37;;;8.50;1.00;;;;;;5529758;25;20821;-58
2024/04/15 05:57:40;;;;;;;13.23;8.97;;;8.50;1.00;;;;;;5530512;25;20568;-60
2024/04/15 06:00:07;;;;;;;11.00;8.63;;;8.50;1.00;;;;;;5530728;25;20743;-59
2024/04/15 06:02:39;;;;;;;9.87;7.53;;;8.50;1.00;;;;;;5530703;25;20506;-58
2024/04/15 06:05:05;;;;;;;13.13;7.70;;;8.60;32.10;;;;;;5530564;25;20797;-59
2024/04/15 06:07:34;;;;;;;10.30;7.97;;;8.70;99.50;;;;;;5530774;25;20462;-58
2024/04/15 06:10:01;;;;;;;8.90;7.40;;;8.80;1.00;;;;;;5530501;25;20450;-58
2024/04/15 06:12:31;;;;;;;11.53;7.87;;;8.90;42.90;;;;;;5530586;25;20732;-58
2024/04/15 06:14:57;;;;;;;13.07;7.37;;;9.00;1.00;;;;;;5530494;25;20888;-59
2024/04/15 06:17:26;;;;;;;14.23;7.27;;;9.10;15.20;;;;;;5530599;25;20454;-58
2024/04/15 06:19:55;;;;;;;9.50;7.03;;;9.10;1.00;;;;;;5529308;25;20489;-58
2024/04/15 06:22:24;;;;;;;10.80;8.07;;;9.00;1.00;;;;;;5530392;25;20763;-58
2024/04/15 06:24:51;;;;;;;10.30;7.20;;;9.10;1.00;;;;;;5530477;25;20454;-58
2024/04/15 06:27:20;;;;;;;12.23;7.33;;;9.10;1.00;;;;;;5530112;25;20455;-58
2024/04/15 06:29:46;;;;;;;12.77;6.20;;;9.10;1.00;;;;;;5530504;25;21059;-58
2024/04/15 06:32:15;;;;;;;10.60;6.70;;;9.20;1.00;;;;;;5530317;25;20463;-58
2024/04/15 06:34:41;;;;;;;17.73;6.50;;;9.20;1.00;;;;;;5528343;25;20853;-57
2024/04/15 06:37:13;;;;;;;12.13;7.03;;;9.20;1.00;;;;;;5529831;25;20463;-57
2024/04/15 06:39:39;;;;;;;13.57;7.23;;;9.10;1.00;;;;;;5530460;25;20441;-57
2024/04/15 06:42:08;;;;;;;12.53;6.63;;;8.90;1.00;;;;;;5530105;25;20462;-57
2024/04/15 06:44:35;;;;;;;10.87;5.90;;;8.90;1.00;;;;;;5530213;25;20396;-56
2024/04/15 06:47:04;;;;;;;7.67;5.60;;;8.70;1.00;;;;;;5530384;25;20392;-57
2024/04/15 06:49:30;;;;;;;14.20;6.60;;;8.80;1.00;;;;;;5530235;25;20441;-56
2024/04/15 06:51:59;;;;;;;12.40;7.10;;;8.80;1.00;;;;;;5529869;25;20783;-52
2024/04/15 06:54:28;;;;;;;14.90;6.30;;;8.90;1.00;;;;;;5530089;25;20427;-57
2024/04/15 06:56:57;;;;;;;13.63;6.40;;;8.90;1.00;;;;;;5530047;25;20597;-55
2024/04/15 06:59:23;;;;;;;9.27;7.17;;;8.80;1.00;;;;;;5530065;25;20479;-55
2024/04/15 07:01:52;;;;;;;10.73;7.00;;;8.80;1.00;;;;;;5529628;25;20769;-56
2024/04/15 07:04:18;;;;;;;10.97;6.20;;;8.90;1.00;;;;;;5529811;25;20451;-57
2024/04/15 07:06:47;;;;;;;10.70;7.53;;;8.80;1.00;;;;;;5529888;25;20403;-57
2024/04/15 07:09:14;;;;;;;9.80;7.20;;;8.80;1.00;;;;;;5528687;25;20455;-57
2024/04/15 07:11:46;;;;;;;13.97;6.37;;;8.70;1.00;;;;;;5527390;25;20753;-57
2024/04/15 07:14:12;;;;;;;14.30;7.00;;;8.80;1.00;;;;;;5527030;25;20381;-55
2024/04/15 07:16:41;;;;;;;10.97;6.37;;;8.70;1.00;;;;;;5526915;25;20459;-55
2024/04/15 07:19:07;;;;;;;10.77;7.73;;;8.80;1.00;;;;;;5527309;25;20883;-56
2024/04/15 07:21:37;;;;;;;17.67;7.50;;;8.80;1.00;;;;;;5526730;25;20478;-56
2024/04/15 07:24:03;;;;;;;8.77;7.83;;;8.70;1.00;;;;;;5526920;25;20711;-55
2024/04/15 07:26:32;;;;;;;12.90;7.53;;;8.70;1.00;;;;;;5528807;25;20760;-54
2024/04/15 07:29:01;;;;;;;12.77;7.33;;;8.70;1.00;;;;;;5529639;25;20795;-55
2024/04/15 07:31:30;;;;;;;16.30;7.83;;;8.70;18.00;;;;;;5527848;25;20388;-54
2024/04/15 07:33:56;;;;;;;12.70;7.40;;;8.80;3.20;;;;;;5526413;25;20385;-56
2024/04/15 07:36:28;;;;;;;13.63;8.37;;;8.80;1.00;;;;;;5526008;25;20408;-55
2024/04/15 07:38:54;;;;;;;10.63;6.67;;;8.70;1.00;;;;;;5526413;25;21111;-57
2024/04/15 07:41:23;;;;;;;14.73;6.40;;;8.70;1.00;;;;;;5525284;25;20459;-58
2024/04/15 07:43:52;;;;;;;14.83;6.67;;;8.90;1.00;;;;;;5524770;25;20518;-57
2024/04/15 07:46:24;;;;;;;16.23;6.40;;;9.00;1.00;;;;;;5524958;25;20897;-58
2024/04/15 07:48:50;;;;;;;14.23;6.57;;;9.10;1.00;;;;;;5526615;25;20489;-57
2024/04/15 07:51:20;;;;;;;10.90;6.60;;;9.50;1.00;;;;;;5526700;25;20519;-56
2024/04/15 07:53:46;;;;;;;11.30;6.80;;;9.60;1.00;;;;;;5526649;25;20459;-57
2024/04/15 07:56:15;;;;;;;12.10;5.70;;;9.90;1.00;;;;;;5527514;25;20936;-56
2024/04/15 07:58:42;;;;;;;9.27;5.80;;;9.70;99.90;;;;;;5529035;25;20431;-57
2024/04/15 08:01:12;;;;;;;9.17;5.67;;;9.60;1.00;;;;;;5529132;25;20455;-58
2024/04/15 08:03:41;;;;;;;9.20;4.73;;;9.70;1.00;;;;;;5529179;25;20388;-57
2024/04/15 08:06:10;;;;;;;12.07;5.90;;;10.10;1.00;;;;;;5528664;25;20451;-56
2024/04/15 08:08:36;;;;;;;10.10;5.73;;;10.30;99.90;;;;;;5528914;25;20451;-56
2024/04/15 08:11:06;;;;;;;7.80;4.90;;;10.40;99.90;;;;;;5528913;25;20567;-58
2024/04/15 08:13:33;;;;;;;8.53;4.43;;;10.60;99.90;;;;;;5529153;25;20714;-58
2024/04/15 08:16:02;;;;;;;8.17;4.40;;;10.60;99.90;;;;;;5528568;25;20451;-57
2024/04/15 08:18:28;;;;;;;9.20;5.43;;;10.60;99.90;;;;;;5528706;25;20437;-56
2024/04/15 08:21:00;;;;;;;9.63;4.87;;;10.60;99.90;;;;;;5528832;25;20458;-58
2024/04/15 08:23:26;;;;;;;11.20;4.80;;;10.40;99.90;;;;;;5528421;25;20446;-58
2024/04/15 08:25:56;;;;;;;10.43;4.70;;;10.70;99.90;;;;;;5528652;25;20910;-58
2024/04/15 08:28:23;;;;;;;10.63;5.33;;;10.60;48.80;;;;;;5528527;25;20451;-58
2024/04/15 08:30:52;;;;;;;8.30;4.77;;;10.80;99.90;;;;;;5528552;25;20467;-59
2024/04/15 08:33:19;;;;;;;8.73;4.90;;;11.50;99.90;;;;;;5528923;25;20507;-58
2024/04/15 08:35:47;;;;;;;6.07;4.00;;;11.90;1.00;;;;;;5528415;25;20439;-58
2024/04/15 08:38:16;;;;;;;6.73;4.03;;;12.00;1.00;;;;;;5529094;25;20510;-59
2024/04/15 08:40:54;;;;;;;13.00;3.80;;;12.40;1.00;;;;;;5528475;25;20451;-57
2024/04/15 08:43:22;;;;;;;4.53;3.10;;;12.50;99.90;;;;;;5528581;25;20685;-59
2024/04/15 08:45:55;;;;;;;8.50;5.10;;;12.00;31.90;;;;;;5527644;25;20458;-58
2024/04/15 08:48:22;;;;;;;9.13;4.10;;;12.20;1.00;;;;;;5528234;25;20499;-58
2024/04/15 08:50:52;;;;;;;7.00;4.60;;;12.40;99.90;;;;;;5528226;25;20499;-58
2024/04/15 08:53:21;;;;;;;5.20;4.27;;;12.70;99.90;;;;;;5527711;25;20968;-58
2024/04/15 08:55:50;;;;;;;6.27;4.07;;;12.60;99.90;;;;;;5527580;25;20506;-58
2024/04/15 08:58:16;;;;;;;13.83;4.27;;;12.50;99.90;;;;;;5530776;25;20948;-58
2024/04/15 09:00:47;;;;;;;7.53;3.70;;;12.10;1.00;;;;;;5531613;25;20522;-57
2024/04/15 09:03:14;;;;;;;9.17;4.67;;;11.90;99.90;;;;;;5531746;25;20527;-58
2024/04/15 09:05:43;;;;;;;8.47;3.93;;;12.40;99.90;;;;;;5531863;25;20392;-59
2024/04/15 09:08:10;;;;;;;10.63;3.50;;;12.90;1.00;;;;;;5531280;25;20515;-58
2024/04/15 09:10:42;;;;;;;11.63;4.03;;;12.90;1.00;;;;;;5529877;25;20486;-59
2024/04/15 09:13:09;;;;;;;7.20;3.10;;;12.90;99.90;;;;;;5531226;25;20966;-57
2024/04/15 09:15:38;;;;;;;12.33;4.47;;;12.70;99.90;;;;;;5531495;25;20826;-58
2024/04/15 09:18:06;;;;;;;6.00;3.80;;;12.60;99.90;;;;;;5531330;25;20511;-58
2024/04/15 09:20:35;;;;;;;5.47;3.13;;;12.70;1.00;;;;;;5530885;25;20462;-58
2024/04/15 09:23:03;;;;;;;8.23;4.27;;;12.90;99.90;;;;;;5527101;25;21038;-59
2024/04/15 09:25:34;;;;;;;6.87;3.40;;;13.00;99.90;;;;;;5501944;26;20536;-58
2024/04/15 09:28:04;;;;;;;6.30;3.60;;;13.20;46.40;;;;;;5493179;26;20867;-59
2024/04/15 09:30:35;;;;;;;7.03;3.33;;;13.40;99.90;;;;;;5530406;26;20479;-58
2024/04/15 09:33:02;;;;;;;6.93;3.80;;;13.40;99.90;;;;;;5528444;25;20510;-59
2024/04/15 09:35:31;;;;;;;10.33;4.67;;;13.30;1.00;;;;;;5531313;25;20522;-59
2024/04/15 09:37:58;;;;;;;8.40;4.20;;;13.30;99.90;;;;;;5529705;25;20477;-59
2024/04/15 09:40:29;;;;;;;5.53;3.50;;;13.90;1.00;;;;;;5531167;25;20450;-59
2024/04/15 09:42:56;;;;;;;5.60;3.10;;;14.00;1.00;;;;;;5527409;25;20466;-59
2024/04/15 09:45:31;;;;;;;6.90;3.73;;;13.70;1.00;;;;;;5531195;25;20455;-59
2024/04/15 09:47:59;;;;;;;5.87;3.80;;;13.20;99.90;;;;;;5527732;25;20430;-59
2024/04/15 09:50:30;;;;;;;8.00;4.13;;;13.40;1.00;;;;;;5528893;25;20959;-59
2024/04/15 09:52:58;;;;;;;7.00;4.20;;;13.20;99.90;;;;;;5507803;25;20828;-59
2024/04/15 09:55:36;;;;;;;7.00;4.10;;;13.40;99.90;;;;;;5503474;26;20479;-61
2024/04/15 09:58:04;;;;;;;6.57;4.73;;;13.00;99.90;;;;;;5530639;25;20442;-60
2024/04/15 10:00:40;;;;;;;7.87;4.07;;;12.80;99.90;;;;;;5530266;25;20848;-59
2024/04/15 10:03:08;;;;;;;4.07;3.67;;;13.20;99.90;;;;;;5530177;25;20450;-60
2024/04/15 10:05:42;;;;;;;9.93;4.50;;;13.20;99.90;;;;;;5530911;25;20476;-59
2024/04/15 10:08:09;;;;;;;11.07;3.67;;;13.50;99.90;;;;;;5530257;25;20495;-59
2024/04/15 10:10:41;;;;;;;5.83;3.53;;;13.50;1.00;;;;;;5530876;25;20943;-59
2024/04/15 10:13:08;;;;;;;6.80;3.80;;;13.90;1.00;;;;;;5530931;25;20489;-59
2024/04/15 10:15:40;;;;;;;6.23;3.53;;;13.60;1.00;;;;;;5530825;25;20458;-60
2024/04/15 10:18:10;;;;;;;6.33;3.27;;;13.80;1.00;;;;;;5530544;25;20907;-59
2024/04/15 10:20:40;;;;;;;9.87;4.20;;;13.80;99.90;;;;;;5528346;25;20463;-59
2024/04/15 10:23:11;;;;;;;8.90;3.83;;;13.50;1.00;;;;;;5527957;25;20436;-60
2024/04/15 10:25:39;;;;;;;6.90;3.90;;;13.30;1.00;;;;;;5528987;25;20576;-60
2024/04/15 10:28:08;;;;;;;8.63;3.90;;;12.90;1.00;;;;;;5529889;25;20504;-59
2024/04/15 10:30:40;;;;;;;8.13;3.73;;;12.60;99.90;;;;;;5529718;25;20400;-59
2024/04/15 10:33:11;;;;;;;7.43;4.10;;;12.90;99.90;;;;;;5529872;25;20534;-61
2024/04/15 10:35:40;;;;;;;11.07;3.70;;;13.20;19.00;;;;;;5530263;25;20443;-59
2024/04/15 10:38:10;;;;;;;12.43;4.00;;;13.00;1.00;;;;;;5524641;25;20639;-59
2024/04/15 10:40:38;;;;;;;6.87;3.60;;;13.20;1.00;;;;;;5492921;26;20913;-59
2024/04/15 10:43:08;;;;;;;7.00;3.50;;;12.90;1.00;;;;;;5512583;26;20512;-60
2024/04/15 10:45:37;;;;;;;12.33;3.70;;;12.60;1.00;;;;;;5530357;25;20463;-62
2024/04/15 10:48:07;;;;;;;7.83;3.33;;;12.70;91.10;;;;;;5529216;25;20752;-59
2024/04/15 10:50:34;;;;;;;5.23;3.83;;;12.80;4.60;;;;;;5528871;25;20510;-59
2024/04/15 10:53:03;;;;;;;5.80;3.70;;;12.50;1.00;;;;;;5530124;25;20526;-60
2024/04/15 10:55:29;;;;;;;6.83;3.87;;;12.60;99.90;;;;;;5507027;25;20754;-59
2024/04/15 10:58:00;;;;;;;8.07;3.43;;;12.60;75.20;;;;;;5492693;26;20456;-59
2024/04/15 11:00:26;;;;;;;11.03;3.47;;;12.50;99.90;;;;;;5493049;26;20445;-60
2024/04/15 11:02:58;;;;;;;6.60;3.63;;;12.20;99.90;;;;;;5493054;26;20460;-60
2024/04/15 11:05:24;;;;;;;6.97;3.53;;;12.00;99.90;;;;;;5493148;26;20891;-58
2024/04/15 11:07:54;;;;;;;7.07;3.20;;;12.20;99.90;;;;;;5492929;26;20460;-59
2024/04/15 11:10:20;;;;;;;4.87;3.53;;;12.40;99.90;;;;;;5492956;26;20498;-59
2024/04/15 11:12:54;;;;;;;7.33;4.40;;;12.70;99.90;;;;;;5492928;26;20464;-59
2024/04/15 11:15:21;;;;;;;5.97;3.80;;;12.80;99.90;;;;;;5493114;26;20491;-59
2024/04/15 11:17:50;;;;;;;7.43;3.37;;;12.80;37.30;;;;;;5492537;26;20448;-59
2024/04/15 11:20:20;;;;;;;7.60;3.17;;;12.90;99.90;;;;;;5491686;26;20495;-59
2024/04/15 11:22:49;;;;;;;14.50;5.17;;;13.30;1.00;;;;;;5492389;26;20909;-60
2024/04/15 11:25:17;;;;;;;8.10;3.80;;;13.70;1.00;;;;;;5490125;26;20501;-59
2024/04/15 11:27:49;;;;;;;5.97;3.43;;;14.00;1.00;;;;;;5489416;26;20471;-60
2024/04/15 11:30:20;;;;;;;6.03;3.30;;;13.80;1.00;;;;;;5489583;26;20460;-58
2024/04/15 11:32:50;;;;;;;8.00;2.80;;;13.50;1.00;;;;;;5489856;26;20460;-60
2024/04/15 11:35:20;;;;;;;6.63;3.43;;;13.50;1.00;;;;;;5489424;26;20497;-60
2024/04/15 11:37:55;;;;;;;14.90;3.07;;;13.90;1.00;;;;;;5489384;26;20532;-61
2024/04/15 11:40:21;;;;;;;7.13;3.00;;;14.30;1.00;;;;;;5490229;26;20589;-60
2024/04/15 11:42:50;;;;;;;3.80;2.87;;;14.50;1.00;;;;;;5490756;26;20814;-61
2024/04/15 11:45:17;;;;;;;8.23;2.80;;;14.20;1.00;;;;;;5492561;26;20495;-61
2024/04/15 11:47:46;;;;;;;7.60;2.70;;;14.40;1.00;;;;;;5492240;26;20518;-61
2024/04/15 11:50:12;;;;;;;7.33;2.70;;;15.00;1.00;;;;;;5492180;26;20449;-61
2024/04/15 11:52:44;;;;;;;5.67;2.77;;;15.30;1.00;;;;;;5492130;26;20460;-61
2024/04/15 11:55:17;;;;;;;8.43;3.27;;;15.10;1.00;;;;;;5492974;26;20441;-60
2024/04/15 11:57:47;;;;;;;4.97;2.97;;;14.90;33.30;;;;;;5492202;26;20921;-60
2024/04/15 12:00:14;;;;;;;3.70;3.00;;;15.20;99.90;;;;;;5492275;26;20904;-60
2024/04/15 12:02:44;;;;;;;6.70;3.10;;;15.20;55.40;;;;;;5492007;26;20842;-60
2024/04/15 12:05:12;;;;;;;6.33;2.87;;;15.20;1.00;;;;;;5492247;26;20471;-60
2024/04/15 12:07:45;;;;;;;5.67;2.63;;;15.60;1.00;;;;;;5492497;26;20464;-60
2024/04/15 12:10:12;;;;;;;6.47;3.40;;;15.70;91.70;;;;;;5527585;26;20519;-60
2024/04/15 12:12:42;;;;;;;4.40;2.40;;;15.30;99.90;;;;;;5525373;25;20745;-61
2024/04/15 12:15:10;;;;;;;6.83;2.97;;;15.10;96.60;;;;;;5524463;25;20571;-61
2024/04/15 12:17:39;;;;;;;6.27;3.00;;;14.80;1.00;;;;;;5525510;25;20503;-61
2024/04/15 12:20:07;;;;;;;7.23;2.87;;;14.60;1.00;;;;;;5524514;25;20532;-60
2024/04/15 12:22:36;;;;;;;4.73;2.73;;;14.30;1.00;;;;;;5525745;25;20507;-61
2024/04/15 12:25:06;;;;;;;7.80;3.10;;;14.20;1.00;;;;;;5525389;25;20522;-59
2024/04/15 12:27:35;;;;;;;7.33;3.50;;;14.00;1.00;;;;;;5525763;25;20455;-60
2024/04/15 12:30:03;;;;;;;9.70;2.53;;;13.90;1.00;;;;;;5527937;25;20431;-60
2024/04/15 12:32:32;;;;;;;7.87;3.10;;;13.80;1.00;;;;;;5531527;25;20463;-60
2024/04/15 12:34:59;;;;;;;7.77;2.73;;;13.70;1.00;;;;;;5529579;25;21052;-60
2024/04/15 12:37:28;;;;;;;7.57;2.43;;;13.60;1.00;;;;;;5532421;25;20919;-61
2024/04/15 12:39:54;;;;;;;4.07;2.30;;;13.60;1.00;;;;;;5531972;25;20454;-60
2024/04/15 12:42:27;;;;;;;9.23;3.17;;;13.50;99.90;;;;;;5531190;25;20459;-61
2024/04/15 12:44:53;;;;;;;5.40;2.40;;;13.50;1.00;;;;;;5528104;25;20478;-60
2024/04/15 12:47:23;;;;;;;5.30;2.67;;;13.40;1.00;;;;;;5530197;25;20503;-63
2024/04/15 12:49:50;;;;;;;4.80;2.70;;;13.20;1.00;;;;;;5529420;25;20399;-60
2024/04/15 12:52:19;;;;;;;3.67;3.23;;;13.00;99.90;;;;;;5529023;25;20475;-61
2024/04/15 12:54:45;;;;;;;5.57;2.60;;;12.80;1.00;;;;;;5527304;25;20462;-61